Time;durP1;ratioP1;P1;durP2;ratioP2;P2;SDS_P1;SDS_P2;PMS_P1;PMS_P2;Temp;Humidity;BMP_temperature;BMP_pressure;BME280_temperature;BME280_humidity;BME280_pressure;Samples;Min_cycle;Max_cycle;Signal;HPM_P1;HPM_P2
2021/12/29 00:00:47;;;;;;;3.22;1.75;;;5.10;99.90;;;;;;5028509;28;20102;-82
2021/12/29 00:03:13;;;;;;;2.33;1.23;;;5.70;99.90;;;;;;5044609;28;20037;-82
2021/12/29 00:05:38;;;;;;;3.97;2.03;;;6.40;99.90;;;;;;5024880;28;20368;-82
2021/12/29 00:08:05;;;;;;;3.05;1.73;;;5.70;99.90;;;;;;5059634;28;20064;-83
2021/12/29 00:10:32;;;;;;;6.38;3.70;;;5.60;99.90;;;;;;5045428;28;20419;-83
2021/12/29 00:12:58;;;;;;;6.68;3.47;;;6.20;99.90;;;;;;5028457;28;20454;-82
2021/12/29 00:15:27;;;;;;;5.80;2.90;;;5.60;99.90;;;;;;5039452;28;20497;-82
2021/12/29 00:17:54;;;;;;;4.90;2.35;;;5.60;99.90;;;;;;5039699;28;20080;-82
2021/12/29 00:20:28;;;;;;;3.88;2.13;;;5.60;99.90;;;;;;4988360;28;20048;-82
2021/12/29 00:22:57;;;;;;;3.83;2.10;;;6.20;99.90;;;;;;5046189;28;20055;-82
2021/12/29 00:25:23;;;;;;;5.00;2.17;;;5.60;99.90;;;;;;5039093;28;20043;-83
2021/12/29 00:27:49;;;;;;;3.67;2.15;;;5.60;99.90;;;;;;5025739;28;20049;-83
2021/12/29 00:30:15;;;;;;;4.97;2.80;;;6.20;99.90;;;;;;5040668;28;20399;-83
2021/12/29 00:32:41;;;;;;;4.15;2.10;;;5.70;99.90;;;;;;5057157;28;20120;-83
2021/12/29 00:35:11;;;;;;;3.13;1.63;;;6.40;99.90;;;;;;5021347;28;20141;-83
2021/12/29 00:37:36;;;;;;;4.65;2.35;;;5.60;99.90;;;;;;5028322;28;20386;-83
2021/12/29 00:40:03;;;;;;;3.88;1.63;;;5.90;99.90;;;;;;5028020;28;20128;-83
2021/12/29 00:42:28;;;;;;;3.80;1.35;;;5.50;99.90;;;;;;5037765;28;20495;-83
2021/12/29 00:44:55;;;;;;;3.00;1.50;;;5.80;99.90;;;;;;5040589;28;20053;-83
2021/12/29 00:47:20;;;;;;;3.33;1.85;;;5.90;99.90;;;;;;5026928;28;20041;-82
2021/12/29 00:49:47;;;;;;;4.72;2.28;;;5.50;99.90;;;;;;5045421;28;20376;-82
2021/12/29 00:52:13;;;;;;;4.85;2.15;;;5.70;99.90;;;;;;5048622;28;20425;-83
2021/12/29 00:54:41;;;;;;;6.25;3.55;;;6.00;99.90;;;;;;5035987;28;20040;-83
2021/12/29 00:57:06;;;;;;;7.65;3.75;;;7.40;99.90;;;;;;5042039;28;20077;-83
2021/12/29 00:59:32;;;;;;;7.35;3.53;;;6.00;99.90;;;;;;5042268;28;20134;-83
2021/12/29 01:01:58;;;;;;;7.78;3.03;;;5.60;99.90;;;;;;5041086;28;20103;-82
2021/12/29 01:04:25;;;;;;;6.90;3.33;;;6.60;99.90;;;;;;5024823;28;20403;-82
2021/12/29 01:06:50;;;;;;;7.97;3.33;;;6.00;99.90;;;;;;5021369;28;20037;-82
2021/12/29 01:09:16;;;;;;;8.73;3.90;;;6.20;99.90;;;;;;5045131;28;20037;-83
2021/12/29 01:11:42;;;;;;;8.45;3.75;;;6.30;99.90;;;;;;5035223;28;20056;-82
2021/12/29 01:14:09;;;;;;;7.72;2.70;;;6.00;99.90;;;;;;5024395;28;20033;-82
2021/12/29 01:16:36;;;;;;;5.30;2.22;;;5.50;99.90;;;;;;5042339;28;20084;-82
2021/12/29 01:19:15;;;;;;;7.32;2.45;;;6.10;99.90;;;;;;5021862;28;20509;-82
2021/12/29 01:21:44;;;;;;;4.70;1.63;;;5.60;99.90;;;;;;5035756;28;20043;-82
2021/12/29 01:24:10;;;;;;;5.70;2.75;;;6.70;99.90;;;;;;5041738;28;20042;-83
2021/12/29 01:26:36;;;;;;;4.10;2.10;;;5.90;99.90;;;;;;5041800;28;20041;-83
2021/12/29 01:29:03;;;;;;;5.10;2.33;;;6.20;99.90;;;;;;5024166;28;20152;-82
2021/12/29 01:31:29;;;;;;;5.72;2.08;;;6.40;99.90;;;;;;5035449;28;20044;-83
2021/12/29 01:33:55;;;;;;;8.10;3.67;;;5.00;99.90;;;;;;5023533;28;20443;-82
2021/12/29 01:36:21;;;;;;;9.15;3.92;;;5.70;99.90;;;;;;5041314;28;20459;-82
2021/12/29 01:38:46;;;;;;;9.18;3.92;;;5.60;99.90;;;;;;5041562;28;20042;-82
2021/12/29 01:41:12;;;;;;;10.90;3.78;;;6.00;99.90;;;;;;5025051;28;20128;-82
2021/12/29 01:43:38;;;;;;;10.82;4.78;;;6.00;99.90;;;;;;5041747;28;20052;-82
2021/12/29 01:46:04;;;;;;;10.13;3.97;;;5.70;99.90;;;;;;5038666;28;20037;-82
2021/12/29 01:48:29;;;;;;;12.88;5.35;;;5.80;99.90;;;;;;5026688;28;20041;-82
2021/12/29 01:50:56;;;;;;;14.05;4.88;;;6.40;99.90;;;;;;5035769;28;20110;-82
2021/12/29 01:53:25;;;;;;;10.30;4.50;;;5.50;99.90;;;;;;5041601;28;20038;-83
2021/12/29 01:55:52;;;;;;;8.70;3.40;;;6.40;99.90;;;;;;5044200;28;20048;-83
2021/12/29 01:58:20;;;;;;;7.20;3.15;;;5.80;99.90;;;;;;5026738;28;20391;-83
2021/12/29 02:00:46;;;;;;;10.30;3.45;;;6.40;99.90;;;;;;5043712;28;20060;-82
2021/12/29 02:03:12;;;;;;;8.25;3.97;;;6.10;99.90;;;;;;5044536;28;20410;-83
2021/12/29 02:05:39;;;;;;;10.70;4.50;;;5.90;99.90;;;;;;5025760;28;20044;-83
2021/12/29 02:08:06;;;;;;;8.82;3.00;;;6.40;99.90;;;;;;5040553;28;20069;-83
2021/12/29 02:10:41;;;;;;;8.68;3.30;;;6.40;99.90;;;;;;5042732;28;20049;-83
2021/12/29 02:13:08;;;;;;;10.20;3.97;;;6.50;99.90;;;;;;5020197;28;20040;-83
2021/12/29 02:15:33;;;;;;;8.88;4.00;;;6.30;99.90;;;;;;5044413;28;20033;-83
2021/12/29 02:17:59;;;;;;;13.45;5.53;;;6.60;99.90;;;;;;5023445;28;20037;-83
2021/12/29 02:20:26;;;;;;;15.02;7.03;;;6.40;99.90;;;;;;5039629;28;20037;-83
2021/12/29 02:23:11;;;;;;;13.82;5.25;;;6.30;99.90;;;;;;5020095;28;20049;-83
2021/12/29 02:25:47;;;;;;;10.43;4.50;;;6.30;99.90;;;;;;5044573;28;20132;-82
2021/12/29 02:28:13;;;;;;;8.82;4.22;;;5.80;99.90;;;;;;5020388;28;20394;-82
2021/12/29 02:30:39;;;;;;;7.50;3.50;;;5.90;99.90;;;;;;5044370;28;20041;-82
2021/12/29 02:33:06;;;;;;;10.27;5.45;;;5.90;99.90;;;;;;5025113;28;20474;-82
2021/12/29 02:35:33;;;;;;;8.48;3.97;;;5.90;99.90;;;;;;5039820;28;20045;-83
2021/12/29 02:38:00;;;;;;;8.07;3.67;;;6.40;99.90;;;;;;5041588;28;20459;-83
2021/12/29 02:40:26;;;;;;;8.60;3.95;;;5.90;99.90;;;;;;5041089;28;20116;-83
2021/12/29 02:42:52;;;;;;;9.13;3.80;;;6.30;99.90;;;;;;5039920;28;20124;-83
2021/12/29 02:45:21;;;;;;;9.20;4.80;;;6.60;99.90;;;;;;5042814;28;20116;-82
2021/12/29 02:47:48;;;;;;;12.52;5.93;;;6.00;99.90;;;;;;5041519;28;20042;-82
2021/12/29 02:50:15;;;;;;;9.57;4.43;;;5.90;99.90;;;;;;5043915;28;20479;-82
2021/12/29 02:52:43;;;;;;;9.98;4.55;;;6.00;99.90;;;;;;5038874;28;20041;-82
2021/12/29 02:55:09;;;;;;;8.93;4.07;;;6.40;99.90;;;;;;5044124;28;20109;-82
2021/12/29 02:57:35;;;;;;;8.40;3.63;;;6.00;99.90;;;;;;5043566;28;20091;-82
2021/12/29 03:00:02;;;;;;;12.38;5.68;;;6.00;99.90;;;;;;5042190;28;20290;-82
2021/12/29 03:02:28;;;;;;;12.23;5.72;;;6.00;99.90;;;;;;5038243;28;20044;-82
2021/12/29 03:04:57;;;;;;;12.35;4.78;;;6.10;99.90;;;;;;5037232;28;20419;-82
2021/12/29 03:07:23;;;;;;;10.95;5.10;;;6.80;99.90;;;;;;5025891;28;20051;-82
2021/12/29 03:09:49;;;;;;;9.13;4.20;;;6.40;99.90;;;;;;5029012;28;20038;-82
2021/12/29 03:12:14;;;;;;;7.35;3.40;;;5.80;99.90;;;;;;5003880;28;20109;-83
2021/12/29 03:14:53;;;;;;;8.45;3.33;;;6.70;99.90;;;;;;4986878;28;20129;-83
2021/12/29 03:17:19;;;;;;;10.82;4.45;;;5.50;99.90;;;;;;4999728;28;20409;-83
2021/12/29 03:19:46;;;;;;;8.70;3.50;;;6.10;99.90;;;;;;5002489;28;20054;-83
2021/12/29 03:22:12;;;;;;;8.20;3.45;;;6.70;99.90;;;;;;5005137;28;20046;-82
2021/12/29 03:24:37;;;;;;;8.00;3.25;;;6.40;99.90;;;;;;5002649;28;20389;-83
2021/12/29 03:27:03;;;;;;;14.57;5.38;;;6.70;99.90;;;;;;5006171;28;20097;-83
2021/12/29 03:29:29;;;;;;;11.43;4.70;;;6.10;99.90;;;;;;5000708;28;20539;-82
2021/12/29 03:31:55;;;;;;;10.68;4.18;;;6.20;99.90;;;;;;5007523;28;20038;-82
2021/12/29 03:34:20;;;;;;;7.30;2.88;;;5.60;99.90;;;;;;5007180;28;20038;-83
2021/12/29 03:36:46;;;;;;;10.40;4.20;;;6.10;99.90;;;;;;5001246;28;20393;-83
2021/12/29 03:39:13;;;;;;;11.40;4.03;;;6.40;99.90;;;;;;5004813;28;20052;-82
2021/12/29 03:41:39;;;;;;;8.32;3.45;;;6.10;99.90;;;;;;5001931;28;20058;-83
2021/12/29 03:44:05;;;;;;;7.15;2.40;;;6.10;99.90;;;;;;5004313;28;20034;-83
2021/12/29 03:46:33;;;;;;;8.27;2.75;;;6.10;99.90;;;;;;5000300;28;20051;-83
2021/12/29 03:48:59;;;;;;;7.22;3.13;;;6.00;99.90;;;;;;5013849;28;20046;-82
2021/12/29 03:51:25;;;;;;;13.60;5.18;;;6.10;99.90;;;;;;5000603;28;20172;-83
2021/12/29 03:53:51;;;;;;;8.77;3.65;;;6.60;99.90;;;;;;5000266;28;20125;-82
2021/12/29 03:56:17;;;;;;;6.60;3.67;;;6.90;99.90;;;;;;5004497;28;20030;-82
2021/12/29 03:58:44;;;;;;;15.02;6.22;;;6.30;99.90;;;;;;5006724;28;20045;-82
2021/12/29 04:01:13;;;;;;;15.57;6.05;;;6.10;99.90;;;;;;5003443;28;20042;-82
2021/12/29 04:03:42;;;;;;;14.40;6.05;;;6.40;99.90;;;;;;5015982;28;20144;-83
2021/12/29 04:06:08;;;;;;;8.88;3.80;;;6.20;99.90;;;;;;5006231;28;20034;-83
2021/12/29 04:08:34;;;;;;;11.07;4.45;;;6.70;99.90;;;;;;4999447;28;20057;-83
2021/12/29 04:11:00;;;;;;;14.90;5.78;;;6.50;99.90;;;;;;5001250;28;20246;-83
2021/12/29 04:13:26;;;;;;;11.60;4.88;;;6.70;99.90;;;;;;5006436;28;20053;-83
2021/12/29 04:15:51;;;;;;;11.55;4.93;;;6.00;99.90;;;;;;5006712;28;20046;-83
2021/12/29 04:18:26;;;;;;;12.00;4.93;;;6.50;99.90;;;;;;5004851;28;20042;-83
2021/12/29 04:20:55;;;;;;;14.50;6.15;;;6.60;99.90;;;;;;4998248;28;20409;-83
2021/12/29 04:23:22;;;;;;;9.88;4.32;;;6.20;99.90;;;;;;5005061;28;20030;-83
2021/12/29 04:25:52;;;;;;;12.07;5.95;;;6.40;99.90;;;;;;4995232;28;20564;-83
2021/12/29 04:28:20;;;;;;;10.15;4.50;;;6.50;99.90;;;;;;5002960;28;20045;-83
2021/12/29 04:31:07;;;;;;;7.55;3.05;;;6.80;99.90;;;;;;5003438;28;20042;-83
2021/12/29 04:33:34;;;;;;;10.20;3.63;;;6.20;99.90;;;;;;5016123;28;20500;-83
2021/12/29 04:36:00;;;;;;;11.02;4.97;;;6.90;99.90;;;;;;5005121;28;20049;-83
2021/12/29 04:38:26;;;;;;;17.95;5.25;;;6.70;99.90;;;;;;4998177;28;20046;-83
2021/12/29 04:40:55;;;;;;;13.95;5.65;;;6.00;99.90;;;;;;5001574;28;20074;-83
2021/12/29 04:43:22;;;;;;;14.70;5.63;;;6.00;99.90;;;;;;5003398;28;20057;-83
2021/12/29 04:45:48;;;;;;;13.63;5.78;;;6.80;99.90;;;;;;5000212;28;20450;-83
2021/12/29 04:48:15;;;;;;;11.82;5.15;;;6.70;99.90;;;;;;5001530;28;20042;-83
2021/12/29 04:51:03;;;;;;;9.15;4.28;;;6.30;99.90;;;;;;5003014;28;20039;-83
2021/12/29 04:53:28;;;;;;;8.07;3.60;;;6.50;99.90;;;;;;5003073;28;20037;-83
2021/12/29 04:55:55;;;;;;;7.28;3.20;;;6.50;99.90;;;;;;4999706;28;20480;-83
2021/12/29 04:58:21;;;;;;;6.68;2.75;;;6.20;99.90;;;;;;5004388;28;20058;-83
2021/12/29 05:00:48;;;;;;;8.57;3.22;;;6.20;99.90;;;;;;4998755;28;20050;-83
2021/12/29 05:03:14;;;;;;;10.30;4.47;;;6.30;99.90;;;;;;5004666;28;20050;-83
2021/12/29 05:05:53;;;;;;;12.27;4.85;;;6.20;99.90;;;;;;4997637;28;20127;-83
2021/12/29 05:08:25;;;;;;;8.35;3.88;;;6.20;99.90;;;;;;5005849;28;20120;-83
2021/12/29 05:10:52;;;;;;;7.82;3.58;;;6.90;99.90;;;;;;4995804;28;20526;-83
2021/12/29 05:13:18;;;;;;;7.55;3.33;;;6.90;99.90;;;;;;5002160;28;20046;-83
2021/12/29 05:15:44;;;;;;;9.07;3.38;;;6.90;99.90;;;;;;5001289;28;20057;-83
2021/12/29 05:18:11;;;;;;;9.30;4.15;;;6.90;99.90;;;;;;4996579;28;20039;-83
2021/12/29 05:20:37;;;;;;;11.90;4.90;;;6.30;99.90;;;;;;4998759;28;20053;-83
2021/12/29 05:23:04;;;;;;;8.60;3.80;;;6.70;99.90;;;;;;5002264;28;20046;-83
2021/12/29 05:25:29;;;;;;;7.68;3.33;;;6.50;99.90;;;;;;4997613;28;20077;-83
2021/12/29 05:27:56;;;;;;;7.93;3.30;;;6.10;99.90;;;;;;4989461;28;20076;-83
2021/12/29 05:30:22;;;;;;;6.43;3.50;;;6.30;99.90;;;;;;4999961;28;20560;-83
2021/12/29 05:32:48;;;;;;;9.65;5.13;;;;;;;;;;5001967;28;20059;-83
2021/12/29 05:35:15;;;;;;;10.52;4.70;;;6.30;99.90;;;;;;4995217;28;20042;-83
2021/12/29 05:37:41;;;;;;;7.20;3.78;;;5.50;99.90;;;;;;5002495;28;20046;-83
2021/12/29 05:40:08;;;;;;;10.52;4.80;;;6.20;99.90;;;;;;5001912;28;20074;-83
2021/12/29 05:42:34;;;;;;;12.57;5.68;;;6.30;99.90;;;;;;5001303;28;20400;-83
2021/12/29 05:45:05;;;;;;;8.35;4.10;;;6.50;99.90;;;;;;5000748;28;20042;-83
2021/12/29 05:47:31;;;;;;;8.43;3.78;;;6.30;99.90;;;;;;5002076;28;20054;-83
2021/12/29 05:49:57;;;;;;;9.80;4.80;;;6.30;99.90;;;;;;5001667;28;20041;-83
2021/12/29 05:52:23;;;;;;;11.98;5.57;;;6.30;99.90;;;;;;5000698;28;20121;-83
2021/12/29 05:54:49;;;;;;;8.63;3.53;;;6.50;99.90;;;;;;5000339;28;20150;-83
2021/12/29 05:57:15;;;;;;;14.82;7.13;;;7.00;99.90;;;;;;5005276;28;20034;-83
2021/12/29 05:59:40;;;;;;;9.18;3.97;;;6.40;99.90;;;;;;5004828;28;20045;-83
2021/12/29 06:02:06;;;;;;;7.22;3.75;;;6.50;99.90;;;;;;4998638;28;20369;-83
2021/12/29 06:04:32;;;;;;;5.70;3.03;;;5.60;99.90;;;;;;4997465;28;20531;-83
2021/12/29 06:06:58;;;;;;;7.05;3.22;;;6.30;99.90;;;;;;4997624;28;20377;-83
2021/12/29 06:09:23;;;;;;;7.93;3.45;;;6.60;99.90;;;;;;5007880;28;20117;-83
2021/12/29 06:11:49;;;;;;;7.22;2.80;;;6.00;99.90;;;;;;5037743;28;20050;-83
2021/12/29 06:14:15;;;;;;;6.28;3.30;;;6.60;99.90;;;;;;5044172;28;20045;-83
2021/12/29 06:16:40;;;;;;;12.10;5.07;;;6.70;99.90;;;;;;5054027;28;20033;-83
2021/12/29 06:19:06;;;;;;;9.40;4.68;;;6.40;99.90;;;;;;5042860;28;20032;-83
2021/12/29 06:21:32;;;;;;;10.55;4.88;;;6.70;99.90;;;;;;5038696;28;20044;-83
2021/12/29 06:23:57;;;;;;;7.10;3.30;;;6.50;99.90;;;;;;5048462;28;20119;-83
2021/12/29 06:26:23;;;;;;;8.60;3.97;;;6.40;99.90;;;;;;5040616;28;20044;-83
2021/12/29 06:28:49;;;;;;;7.32;3.33;;;7.10;99.90;;;;;;5042757;28;20046;-83
2021/12/29 06:31:15;;;;;;;5.28;2.55;;;6.30;99.90;;;;;;5034752;28;20037;-83
2021/12/29 06:33:41;;;;;;;7.15;3.20;;;7.20;99.90;;;;;;5038126;28;20098;-83
2021/12/29 06:36:07;;;;;;;9.38;4.72;;;6.30;99.90;;;;;;5045658;28;20408;-83
2021/12/29 06:38:34;;;;;;;9.73;4.47;;;6.50;99.90;;;;;;5024348;28;20056;-83
2021/12/29 06:41:01;;;;;;;8.85;3.95;;;6.60;99.90;;;;;;5017285;28;20079;-83
2021/12/29 06:43:26;;;;;;;6.65;3.38;;;6.00;99.90;;;;;;5037374;28;20076;-83
2021/12/29 06:45:52;;;;;;;5.85;2.55;;;6.90;99.90;;;;;;5042281;28;20091;-83
2021/12/29 06:48:18;;;;;;;6.38;2.75;;;6.40;99.90;;;;;;5041803;28;20052;-84
2021/12/29 06:50:44;;;;;;;9.57;2.80;;;6.60;99.90;;;;;;5021630;28;20046;-83
2021/12/29 06:53:11;;;;;;;7.15;3.33;;;6.40;99.90;;;;;;5044905;28;20037;-84
2021/12/29 06:55:36;;;;;;;8.18;3.40;;;6.40;99.90;;;;;;5028573;28;20037;-83
2021/12/29 06:58:03;;;;;;;8.30;4.15;;;6.50;99.90;;;;;;5028308;28;20045;-83
2021/12/29 07:00:28;;;;;;;8.90;3.65;;;6.80;99.90;;;;;;5045595;28;20046;-83
2021/12/29 07:02:54;;;;;;;11.32;4.80;;;6.50;99.90;;;;;;5026834;28;20053;-83
2021/12/29 07:05:20;;;;;;;9.88;4.22;;;7.00;99.90;;;;;;5010781;28;20106;-83
2021/12/29 07:07:49;;;;;;;11.00;4.40;;;7.30;99.90;;;;;;5047551;28;20376;-83
2021/12/29 07:10:15;;;;;;;7.82;3.83;;;6.40;99.90;;;;;;5036339;28;20061;-83
2021/12/29 07:12:41;;;;;;;9.90;4.13;;;6.50;99.90;;;;;;4985268;28;20047;-83
2021/12/29 07:15:08;;;;;;;11.63;4.40;;;6.80;99.90;;;;;;5006529;28;20049;-83
2021/12/29 07:17:34;;;;;;;15.27;6.05;;;6.40;99.90;;;;;;5000836;28;20073;-83
2021/12/29 07:19:59;;;;;;;8.57;3.92;;;6.50;99.90;;;;;;5007463;28;20092;-83
2021/12/29 07:22:25;;;;;;;11.65;6.50;;;7.30;99.90;;;;;;5002189;28;20050;-83
2021/12/29 07:24:51;;;;;;;11.55;5.72;;;6.60;99.90;;;;;;5003471;28;20104;-83
2021/12/29 07:27:16;;;;;;;12.48;4.38;;;7.10;99.90;;;;;;5004050;28;20081;-83
2021/12/29 07:29:42;;;;;;;9.25;4.45;;;6.30;99.90;;;;;;5004348;28;20043;-83
2021/12/29 07:32:08;;;;;;;7.03;2.85;;;6.90;99.90;;;;;;4998680;28;20042;-83
2021/12/29 07:34:35;;;;;;;9.45;3.58;;;7.90;99.90;;;;;;5006112;28;20125;-83
2021/12/29 07:37:01;;;;;;;8.40;3.45;;;7.30;99.90;;;;;;5005607;28;20061;-84
2021/12/29 07:39:27;;;;;;;8.40;4.00;;;6.50;99.90;;;;;;5006062;28;20037;-83
2021/12/29 07:41:53;;;;;;;6.82;3.13;;;7.00;99.90;;;;;;5000136;28;20050;-83
2021/12/29 07:44:19;;;;;;;6.00;2.97;;;6.60;99.90;;;;;;5007209;28;20500;-83
2021/12/29 07:46:48;;;;;;;8.88;2.92;;;7.30;99.90;;;;;;5004159;28;20112;-83
2021/12/29 07:49:14;;;;;;;7.72;3.03;;;6.70;99.90;;;;;;5006295;28;20050;-84
2021/12/29 07:51:41;;;;;;;7.30;3.08;;;6.60;99.90;;;;;;4999727;28;20068;-83
2021/12/29 07:54:07;;;;;;;6.80;2.90;;;7.00;99.90;;;;;;5004240;28;20056;-83
2021/12/29 07:56:33;;;;;;;6.35;2.92;;;6.50;99.90;;;;;;5007246;28;20400;-86
2021/12/29 07:58:59;;;;;;;5.75;2.42;;;6.50;99.90;;;;;;5001761;28;20046;-84
2021/12/29 08:01:25;;;;;;;7.22;3.13;;;7.20;99.90;;;;;;5002481;28;20046;-85
2021/12/29 08:03:51;;;;;;;8.10;3.80;;;6.90;99.90;;;;;;5007742;28;20073;-83
2021/12/29 08:06:18;;;;;;;9.63;3.60;;;7.30;99.90;;;;;;5003594;28;20065;-83
2021/12/29 08:08:44;;;;;;;6.88;3.15;;;7.10;99.90;;;;;;4997370;28;20563;-83
2021/12/29 08:11:10;;;;;;;6.57;3.80;;;6.50;99.90;;;;;;5027962;28;20053;-83
2021/12/29 08:13:36;;;;;;;7.10;3.45;;;6.50;99.90;;;;;;5058994;28;20398;-83
2021/12/29 08:16:02;;;;;;;8.32;3.47;;;7.10;99.90;;;;;;5042885;28;20035;-83
2021/12/29 08:18:28;;;;;;;6.07;2.72;;;6.60;99.90;;;;;;5044952;28;20041;-83
2021/12/29 08:20:53;;;;;;;6.63;2.88;;;6.90;99.90;;;;;;5046453;28;20091;-83
2021/12/29 08:23:19;;;;;;;13.20;5.85;;;6.90;99.90;;;;;;5039357;28;20052;-82
2021/12/29 08:25:45;;;;;;;11.40;4.35;;;6.60;99.90;;;;;;5042481;28;20080;-83
2021/12/29 08:28:11;;;;;;;7.15;3.60;;;6.60;99.90;;;;;;5027654;28;20075;-82
2021/12/29 08:30:37;;;;;;;7.88;3.50;;;6.50;99.90;;;;;;5043229;28;20571;-83
2021/12/29 08:33:02;;;;;;;8.05;3.80;;;6.70;99.90;;;;;;5043967;28;20065;-83
2021/12/29 08:35:28;;;;;;;6.40;2.67;;;6.60;99.90;;;;;;5042833;28;20111;-84
2021/12/29 08:37:55;;;;;;;6.43;2.88;;;7.00;99.90;;;;;;5021265;28;20048;-83
2021/12/29 08:40:21;;;;;;;6.20;2.90;;;7.00;99.90;;;;;;5039067;28;20056;-83
2021/12/29 08:42:48;;;;;;;7.30;2.60;;;6.90;99.90;;;;;;5044440;28;20037;-83
2021/12/29 08:45:15;;;;;;;7.22;2.60;;;7.10;99.90;;;;;;5041357;28;20044;-83
2021/12/29 08:47:43;;;;;;;9.73;3.28;;;7.80;99.90;;;;;;5042934;28;20791;-82
2021/12/29 08:50:13;;;;;;;5.93;2.70;;;7.00;99.90;;;;;;5046012;28;20041;-84
2021/12/29 08:52:39;;;;;;;5.80;2.75;;;6.70;99.90;;;;;;5025973;28;20041;-85
2021/12/29 08:55:08;;;;;;;10.43;4.50;;;7.20;99.90;;;;;;5039810;28;20045;-84
2021/12/29 08:57:34;;;;;;;10.52;4.28;;;6.80;99.90;;;;;;5026475;28;20044;-83
2021/12/29 09:00:00;;;;;;;9.35;4.15;;;6.20;99.90;;;;;;5038564;28;20044;-84
2021/12/29 09:02:26;;;;;;;7.15;3.58;;;7.50;99.90;;;;;;5045353;28;20056;-83
2021/12/29 09:04:52;;;;;;;6.22;2.47;;;6.90;99.90;;;;;;5038862;28;20128;-86
2021/12/29 09:07:18;;;;;;;7.18;3.10;;;7.70;99.90;;;;;;5027511;28;20522;-86
2021/12/29 09:09:44;;;;;;;7.78;2.92;;;7.50;99.90;;;;;;5025258;28;20084;-84
2021/12/29 09:12:10;;;;;;;12.93;5.88;;;7.40;99.90;;;;;;5041807;28;20408;-84
2021/12/29 09:14:35;;;;;;;8.73;4.03;;;7.30;99.90;;;;;;5035660;28;20091;-84
2021/12/29 09:17:24;;;;;;;7.70;3.00;;;7.70;99.90;;;;;;5041535;28;20052;-93
2021/12/29 09:19:50;;;;;;;4.72;2.25;;;7.40;99.90;;;;;;5010443;28;20075;-84
2021/12/29 09:22:16;;;;;;;5.55;2.70;;;6.90;99.90;;;;;;4994559;28;20493;-83
2021/12/29 09:24:43;;;;;;;10.15;3.13;;;6.80;99.90;;;;;;5028240;28;20089;-84
2021/12/29 09:27:09;;;;;;;7.13;3.20;;;7.70;99.90;;;;;;5014604;28;20050;-84
2021/12/29 09:29:35;;;;;;;7.07;3.00;;;7.60;99.90;;;;;;5014490;28;20094;-83
2021/12/29 09:32:03;;;;;;;5.20;2.13;;;6.60;99.90;;;;;;4998050;28;20069;-83
2021/12/29 09:34:29;;;;;;;6.03;2.95;;;7.00;99.90;;;;;;5030727;28;20049;-83
2021/12/29 09:36:55;;;;;;;7.97;3.63;;;6.90;99.90;;;;;;5014147;28;20057;-83
2021/12/29 09:39:21;;;;;;;10.15;3.70;;;7.60;99.90;;;;;;5030634;28;20049;-84
2021/12/29 09:41:46;;;;;;;7.93;3.10;;;7.00;99.90;;;;;;5030725;28;20099;-83
2021/12/29 09:44:13;;;;;;;7.35;2.70;;;7.80;99.90;;;;;;5014045;28;20057;-83
2021/12/29 09:46:38;;;;;;;10.20;3.75;;;7.10;99.90;;;;;;5030795;28;20045;-83
2021/12/29 09:49:05;;;;;;;7.43;3.05;;;7.40;99.90;;;;;;5030687;28;20052;-83
2021/12/29 09:51:31;;;;;;;11.57;4.20;;;7.00;99.90;;;;;;5030587;28;20057;-84
2021/12/29 09:53:57;;;;;;;8.20;3.83;;;7.90;99.90;;;;;;5014262;28;20049;-84
2021/12/29 09:56:26;;;;;;;11.15;4.25;;;7.50;99.90;;;;;;5027754;28;20051;-84
2021/12/29 09:58:52;;;;;;;8.18;3.33;;;8.20;99.90;;;;;;5054676;28;20054;-84
2021/12/29 10:01:19;;;;;;;10.27;4.78;;;7.20;99.90;;;;;;5072652;28;20047;-84
2021/12/29 10:03:44;;;;;;;9.68;4.57;;;8.20;99.90;;;;;;5072679;28;20468;-83
2021/12/29 10:06:12;;;;;;;8.70;4.10;;;7.40;99.90;;;;;;5072465;28;20128;-83
2021/12/29 10:08:44;;;;;;;10.32;3.75;;;7.30;99.90;;;;;;5054874;28;20052;-83
2021/12/29 10:11:18;;;;;;;7.55;3.35;;;7.30;99.90;;;;;;5072131;28;20556;-84
2021/12/29 10:13:47;;;;;;;5.78;2.55;;;7.30;99.90;;;;;;5072257;28;20445;-84
2021/12/29 10:16:17;;;;;;;8.13;3.10;;;8.10;99.90;;;;;;5054907;28;20032;-85
2021/12/29 10:18:44;;;;;;;6.50;3.08;;;7.60;99.90;;;;;;5072409;28;20052;-84
2021/12/29 10:21:13;;;;;;;5.50;2.22;;;7.50;99.90;;;;;;5072505;28;20049;-84
2021/12/29 10:23:47;;;;;;;5.72;2.45;;;7.80;99.90;;;;;;5054654;28;20056;-85
2021/12/29 10:26:14;;;;;;;8.50;3.60;;;7.40;99.90;;;;;;5055839;28;20131;-84
2021/12/29 10:28:43;;;;;;;7.80;3.00;;;7.40;99.90;;;;;;5076421;28;20482;-84
2021/12/29 10:31:16;;;;;;;8.20;3.28;;;7.70;99.90;;;;;;5076438;28;20513;-84
2021/12/29 10:33:46;;;;;;;6.32;2.70;;;7.90;99.90;;;;;;5057984;28;20094;-85
2021/12/29 10:36:14;;;;;;;6.55;2.47;;;7.80;99.90;;;;;;5075907;28;20052;-85
2021/12/29 10:38:41;;;;;;;8.63;2.92;;;7.50;99.90;;;;;;5076058;28;20048;-84
2021/12/29 10:41:07;;;;;;;7.43;2.97;;;8.10;99.90;;;;;;5058130;28;20051;-85
2021/12/29 10:43:33;;;;;;;8.20;2.65;;;7.80;99.90;;;;;;5075984;28;20041;-85
2021/12/29 10:45:59;;;;;;;7.28;3.33;;;7.90;99.90;;;;;;5076040;28;20051;-84
2021/12/29 10:48:30;;;;;;;7.53;2.55;;;8.00;99.90;;;;;;5076063;28;20067;-85
2021/12/29 10:51:04;;;;;;;6.32;2.05;;;7.70;99.90;;;;;;5075732;28;20541;-85
2021/12/29 10:53:32;;;;;;;5.63;2.13;;;7.90;99.90;;;;;;5057835;28;20131;-85
2021/12/29 10:55:58;;;;;;;4.82;1.92;;;8.30;99.90;;;;;;5075689;28;20546;-85
2021/12/29 10:58:26;;;;;;;3.33;1.70;;;8.20;99.90;;;;;;5041395;28;20186;-85
2021/12/29 11:01:08;;;;;;;5.10;2.25;;;8.30;99.90;;;;;;5057499;28;20538;-85
2021/12/29 11:03:41;;;;;;;9.40;3.25;;;7.80;99.90;;;;;;5075491;28;20044;-84
2021/12/29 11:06:13;;;;;;;6.28;2.55;;;8.40;99.90;;;;;;5057459;28;20048;-85
2021/12/29 11:08:48;;;;;;;6.53;3.03;;;7.40;99.90;;;;;;5075940;28;20115;-85
2021/12/29 11:11:14;;;;;;;8.02;3.47;;;8.20;99.90;;;;;;5057304;28;20052;-86
2021/12/29 11:13:41;;;;;;;6.25;3.03;;;7.90;99.90;;;;;;5075605;28;20090;-85
2021/12/29 11:16:09;;;;;;;7.20;2.95;;;7.90;99.90;;;;;;5057423;28;20040;-85
2021/12/29 11:18:47;;;;;;;5.38;2.33;;;8.20;99.90;;;;;;5075033;28;20145;-84
2021/12/29 11:21:25;;;;;;;5.38;2.53;;;8.60;99.90;;;;;;5057781;28;20058;-85
2021/12/29 11:23:52;;;;;;;6.32;2.75;;;8.00;99.90;;;;;;5075135;28;20048;-85
2021/12/29 11:26:30;;;;;;;4.93;2.58;;;7.80;99.90;;;;;;5075301;28;20045;-85
2021/12/29 11:29:05;;;;;;;6.38;2.20;;;8.70;99.90;;;;;;5074927;28;20110;-85
2021/12/29 11:31:41;;;;;;;4.10;2.25;;;7.90;99.90;;;;;;5074822;28;20406;-85
2021/12/29 11:34:18;;;;;;;7.47;2.35;;;7.70;99.90;;;;;;5051889;28;20040;-84
2021/12/29 11:36:45;;;;;;;4.38;1.98;;;8.60;99.90;;;;;;5054499;28;20044;-84
2021/12/29 11:39:11;;;;;;;5.75;2.20;;;8.00;99.90;;;;;;5036173;28;20044;-85
2021/12/29 11:41:37;;;;;;;16.20;3.42;;;8.50;99.90;;;;;;5049808;28;20411;-85
2021/12/29 11:44:03;;;;;;;9.18;3.17;;;8.00;99.90;;;;;;5025201;28;20048;-84
2021/12/29 11:46:28;;;;;;;8.02;3.13;;;8.00;99.90;;;;;;5012276;28;20098;-84
2021/12/29 11:48:54;;;;;;;5.82;2.78;;;8.40;99.90;;;;;;5046604;28;20040;-84
2021/12/29 11:51:42;;;;;;;8.02;2.67;;;8.30;99.90;;;;;;5045873;28;20533;-82
2021/12/29 11:54:17;;;;;;;8.27;3.13;;;8.50;99.90;;;;;;5045724;28;20496;-85
2021/12/29 11:56:47;;;;;;;8.80;2.28;;;8.40;99.90;;;;;;5025431;28;20055;-86
2021/12/29 11:59:14;;;;;;;6.85;2.67;;;8.30;99.90;;;;;;5051414;28;20091;-84
2021/12/29 12:01:39;;;;;;;9.63;3.30;;;7.90;99.90;;;;;;5025739;28;20045;-83
2021/12/29 12:04:11;;;;;;;8.05;2.22;;;8.00;99.90;;;;;;5043102;28;20041;-84
2021/12/29 12:06:43;;;;;;;6.53;2.53;;;7.60;99.90;;;;;;5043372;28;20045;-84
2021/12/29 12:09:11;;;;;;;7.22;2.60;;;8.00;99.90;;;;;;5028492;28;20043;-84
2021/12/29 12:12:02;;;;;;;6.32;2.88;;;8.00;99.90;;;;;;5043422;28;20053;-84
2021/12/29 12:14:31;;;;;;;3.75;1.58;;;8.00;99.90;;;;;;5042714;28;20048;-84
2021/12/29 12:17:18;;;;;;;7.45;2.10;;;8.60;99.90;;;;;;5045789;28;20036;-84
2021/12/29 12:19:56;;;;;;;4.63;2.00;;;8.00;99.90;;;;;;5045378;28;20403;-84
2021/12/29 12:22:22;;;;;;;7.97;3.08;;;8.00;99.90;;;;;;5040295;28;20029;-84
2021/12/29 12:24:51;;;;;;;7.30;2.38;;;8.00;99.90;;;;;;5045635;28;20132;-84
2021/12/29 12:27:29;;;;;;;7.32;2.78;;;8.90;99.90;;;;;;5020783;28;20048;-84
2021/12/29 12:30:12;;;;;;;4.70;1.67;;;8.50;99.90;;;;;;5045169;28;20372;-84
2021/12/29 12:32:53;;;;;;;2.75;1.70;;;8.10;99.90;;;;;;5042852;28;20045;-84
2021/12/29 12:35:40;;;;;;;4.10;1.35;;;8.60;99.90;;;;;;5058270;28;20460;-84
2021/12/29 12:38:17;;;;;;;4.43;1.88;;;8.40;99.90;;;;;;5024753;28;20132;-82
2021/12/29 12:40:43;;;;;;;5.32;1.52;;;8.50;99.90;;;;;;5035835;28;20518;-83
2021/12/29 12:43:13;;;;;;;4.47;1.83;;;8.80;99.90;;;;;;5042075;28;20045;-84
2021/12/29 12:45:44;;;;;;;3.83;2.00;;;8.30;99.90;;;;;;5039104;28;20053;-83
2021/12/29 12:48:18;;;;;;;3.85;1.70;;;8.00;99.90;;;;;;5040250;28;20124;-82
2021/12/29 12:50:45;;;;;;;7.40;2.30;;;8.10;99.90;;;;;;5033815;28;20511;-83
2021/12/29 12:53:14;;;;;;;7.15;1.85;;;8.60;99.90;;;;;;5042233;28;20056;-84
2021/12/29 12:55:50;;;;;;;4.85;1.92;;;7.20;99.90;;;;;;5037922;28;20080;-84
2021/12/29 12:58:18;;;;;;;6.88;2.67;;;8.00;99.90;;;;;;5045284;28;20392;-84